EST,Max TemperatureF,Mean TemperatureF,Min TemperatureF,Max Dew PointF,MeanDew PointF,Min DewpointF,Max Humidity, Mean Humidity, Min Humidity, Max Sea Level PressureIn, Mean Sea Level PressureIn, Min Sea Level PressureIn, Max VisibilityMiles, Mean VisibilityMiles, Min VisibilityMiles, Max Wind SpeedMPH, Mean Wind SpeedMPH, Max Gust SpeedMPH,PrecipitationIn, CloudCover, Events, WindDirDegrees
2012-2-1,64,53,42,45,38,27,83,58,32,30.05,30.02,29.99,10,10,10,23,8,30,0.00,3,,243
2012-2-2,55,48,41,40,34,25,89,65,41,30.34,30.10,29.98,10,10,8,22,8,38,T,4,,343
2012-2-3,50,40,30,26,25,23,78,57,36,30.52,30.44,30.36,10,10,10,14,3,18,0.00,0,,315
2012-2-4,43,36,28,34,30,24,96,77,57,30.35,30.20,30.12,10,4,0,12,2,18,0.30,7,Fog-Rain-Snow,12
2012-2-5,43,35,26,32,31,24,96,77,57,30.24,30.15,30.09,10,4,0,8,2,10,0.06,6,Fog-Snow,242
2012-2-6,51,36,21,30,25,19,96,66,36,30.25,30.16,30.06,10,9,4,10,3,18,0.00,0,,217
2012-2-7,54,42,30,29,25,22,69,52,35,30.25,30.16,30.09,10,10,9,15,6,28,0.00,0,,322
2012-2-8,36,32,27,31,29,23,92,81,69,30.27,30.19,30.12,10,3,0,14,1,18,0.17,6,Fog-Snow,49
2012-2-9,44,35,25,25,19,15,72,53,33,30.28,30.22,30.17,10,10,10,17,6,21,0.00,1,,291
2012-2-10,42,31,20,31,25,18,89,66,43,30.20,30.06,29.92,10,6,1,10,3,15,0.11,5,Snow,248
2012-2-11,37,29,21,31,25,5,92,69,46,29.99,29.81,29.68,10,4,0,30,9,44,0.08,8,Fog-Snow,301
2012-2-12,29,25,20,11,8,5,56,49,42,30.15,30.09,30.01,10,10,10,30,17,39,0.00,6,,287
2012-2-13,47,35,23,20,14,11,63,45,26,30.20,30.13,30.08,10,10,10,23,9,29,0.00,0,,274
2012-2-14,50,41,31,30,22,18,69,49,29,30.08,30.01,29.93,10,10,10,9,3,13,0.00,8,,22
2012-2-15,51,43,34,31,28,26,70,54,38,30.29,30.22,30.05,10,9,2,20,5,25,0.00,3,,300
2012-2-16,46,41,36,41,37,29,92,81,70,30.27,30.10,30.00,10,7,2,13,2,17,0.20,8,Rain,163
2012-2-17,52,43,34,40,29,22,96,63,30,30.13,30.07,30.00,10,9,4,18,9,35,0.01,3,Rain,291
2012-2-18,60,42,24,26,23,19,88,56,23,30.12,30.04,29.87,10,10,10,23,8,29,0.00,1,,279
2012-2-19,45,38,31,23,21,19,66,54,41,30.13,30.04,29.93,10,10,10,14,6,18,0.00,0,,7
2012-2-20,49,38,27,21,17,13,63,43,23,30.34,30.22,30.03,10,10,10,16,6,21,0.00,0,,357
2012-2-21,50,36,21,30,24,16,81,60,39,30.34,30.06,29.84,10,8,1,21,7,26,0.00,4,,172
2012-2-22,62,49,35,38,31,24,76,51,25,29.85,29.67,29.47,10,10,10,17,7,24,0.00,3,,207
2012-2-23,63,53,43,38,32,26,65,45,25,29.64,29.56,29.44,10,10,10,23,10,29,T,3,Rain,256
2012-2-24,56,48,40,46,39,23,96,66,35,29.69,29.52,29.38,10,6,2,37,12,46,0.40,7,Rain,358
2012-2-25,42,38,33,25,17,13,64,49,33,30.28,29.94,29.70,10,10,9,37,21,46,T,6,,272
2012-2-26,48,38,28,19,16,14,63,45,26,30.49,30.41,30.31,10,10,10,23,5,31,0.00,1,,277
2012-2-27,66,45,23,29,23,17,75,49,22,30.38,30.26,30.13,10,10,10,26,8,35,0.00,1,,246
2012-2-28,53,43,33,25,20,17,61,44,26,30.50,30.40,30.29,10,10,10,25,4,31,0.00,0,,330
2012-2-29,42,38,34,41,37,25,100,80,59,30.27,29.90,29.64,10,3,1,15,3,21,1.48,7,Rain,28